createdAt,value
2022-12-01T00:02:48.439Z,65.8
2022-12-01T00:07:43.366Z,66.2
2022-12-01T00:12:38.199Z,66.1
2022-12-01T00:17:33.049Z,66.1
2022-12-01T00:22:27.878Z,66
2022-12-01T00:27:21.872Z,66.1
2022-12-01T00:32:16.336Z,66.3
2022-12-01T00:37:10.673Z,66.2
2022-12-01T00:42:07.432Z,66.1
2022-12-01T00:46:59.298Z,66
2022-12-01T00:51:54.084Z,66.7
2022-12-01T00:56:48.868Z,65.8
2022-12-01T01:01:43.466Z,65.7
2022-12-01T01:06:38.121Z,66.6
2022-12-01T01:11:33.001Z,66
2022-12-01T01:16:27.996Z,66.9
2022-12-01T01:21:22.952Z,68
2022-12-01T01:26:17.700Z,68.4
2022-12-01T01:31:12.683Z,68.4
2022-12-01T01:36:07.244Z,68.6
2022-12-01T01:41:01.762Z,66.9
2022-12-01T01:45:56.329Z,67.2
2022-12-01T01:50:50.920Z,67.2
2022-12-01T01:55:45.748Z,66.5
2022-12-01T02:00:40.324Z,67.6
2022-12-01T02:05:35.056Z,67.1
2022-12-01T02:10:29.784Z,67.3
2022-12-01T02:15:24.550Z,67
2022-12-01T02:20:19.060Z,67.6
2022-12-01T02:25:13.944Z,67.3
2022-12-01T02:30:08.700Z,67.7
2022-12-01T02:35:03.441Z,67.1
2022-12-01T02:39:58.118Z,67.5
2022-12-01T02:44:52.902Z,69.3
2022-12-01T02:49:47.984Z,68.5
2022-12-01T02:54:42.032Z,68.6
2022-12-01T02:59:36.561Z,68.7
2022-12-01T03:04:31.308Z,68.5
2022-12-01T03:09:26.168Z,68.7
2022-12-01T03:14:20.544Z,68.8
2022-12-01T03:19:15.357Z,69.1
2022-12-01T03:24:09.482Z,69.5
2022-12-01T03:29:03.968Z,69.1
2022-12-01T03:33:58.571Z,69.3
2022-12-01T03:38:53.534Z,69.1
2022-12-01T03:43:47.742Z,69.6
2022-12-01T03:48:42.166Z,69.3
2022-12-01T03:53:37.121Z,69.6
2022-12-01T03:58:31.579Z,69.1
2022-12-01T04:03:26.179Z,69.3
2022-12-01T04:08:20.925Z,69.7
2022-12-01T04:13:15.754Z,69
2022-12-01T04:18:10.292Z,69.2
2022-12-01T04:23:05.209Z,69.2
2022-12-01T04:27:59.968Z,70
2022-12-01T04:32:54.608Z,70
2022-12-01T04:37:49.427Z,69.7
2022-12-01T04:42:44.133Z,69.6
2022-12-01T04:47:38.707Z,69.1
2022-12-01T04:52:35.338Z,69.4
2022-12-01T04:57:27.994Z,69.4
2022-12-01T05:02:22.862Z,69.5
2022-12-01T05:07:16.996Z,69.6
2022-12-01T05:12:11.810Z,69.4
2022-12-01T05:17:06.494Z,68.3
2022-12-01T05:22:01.198Z,67.8
2022-12-01T05:26:56.430Z,66.9
2022-12-01T05:31:51.573Z,66.4
2022-12-01T05:36:46.658Z,66.2
2022-12-01T05:41:41.830Z,65.8
2022-12-01T05:46:37.155Z,65.1
2022-12-01T05:51:32.544Z,66.1
2022-12-01T05:56:27.089Z,65.1
2022-12-01T06:01:21.747Z,64.9
2022-12-01T06:06:17.207Z,62.7
2022-12-01T06:11:11.678Z,62.2
2022-12-01T06:16:06.599Z,61.6
2022-12-01T06:21:01.227Z,63.1
2022-12-01T06:25:56.055Z,64.9
2022-12-01T06:30:50.947Z,64.6
2022-12-01T06:35:46.044Z,63.2
2022-12-01T06:40:40.267Z,59.4
2022-12-01T06:45:34.470Z,58.8
2022-12-01T06:50:28.695Z,58
2022-12-01T06:55:23.131Z,57.4
2022-12-01T07:00:17.333Z,56.7
2022-12-01T07:05:12.156Z,57
2022-12-01T07:10:06.217Z,57.2
2022-12-01T07:15:01.149Z,57.3
2022-12-01T07:19:55.323Z,56.4
2022-12-01T07:24:49.862Z,56.3
2022-12-01T07:29:44.587Z,56.6
2022-12-01T07:34:39.468Z,57.6
2022-12-01T07:39:34.050Z,57.6
2022-12-01T07:44:28.890Z,57.8
2022-12-01T07:49:23.689Z,58.1
2022-12-01T07:54:17.904Z,57.8
2022-12-01T07:59:12.833Z,58.1
2022-12-01T08:04:07.754Z,58.2
2022-12-01T08:09:02.550Z,58.2
2022-12-01T08:13:56.503Z,58.4
2022-12-01T08:18:50.932Z,58.8
2022-12-01T08:23:45.352Z,59
2022-12-01T08:28:39.646Z,58.9
2022-12-01T08:33:34.521Z,58.7
2022-12-01T08:38:28.948Z,59.3
2022-12-01T08:48:18.020Z,59.6
2022-12-01T08:53:12.577Z,59.9
2022-12-01T08:58:07.154Z,60
2022-12-01T09:03:01.977Z,59.9
2022-12-01T09:07:56.909Z,60.1
2022-12-01T09:12:51.449Z,60.1
2022-12-01T09:17:46.161Z,60.2
2022-12-01T09:22:40.816Z,60.3
2022-12-01T09:27:35.675Z,60.4
2022-12-01T09:32:30.365Z,60.3
2022-12-01T09:37:24.945Z,60.5
2022-12-01T09:42:18.872Z,60.4
2022-12-01T09:47:13.895Z,60.3
2022-12-01T09:52:08.392Z,60.4
2022-12-01T09:57:03.057Z,60.6
2022-12-01T10:01:57.674Z,61.1
2022-12-01T10:06:52.113Z,60.9
2022-12-01T10:11:46.636Z,61
2022-12-01T10:16:41.054Z,61.2
2022-12-01T10:21:35.570Z,61
2022-12-01T10:26:30.261Z,61.3
2022-12-01T10:31:25.152Z,61.1
2022-12-01T10:36:19.631Z,61.5
2022-12-01T10:41:14.122Z,61.4
2022-12-01T10:46:08.976Z,61.4
2022-12-01T10:51:03.592Z,61.9
2022-12-01T10:55:58.069Z,61.7
2022-12-01T11:01:00.818Z,61.7
2022-12-01T11:05:47.640Z,61.9
2022-12-01T11:10:42.283Z,61.7
2022-12-01T11:15:37.267Z,61.9
2022-12-01T11:20:31.859Z,62
2022-12-01T11:25:26.537Z,62
2022-12-01T11:30:21.329Z,62
2022-12-01T11:35:15.929Z,62
2022-12-01T11:40:10.551Z,62.2
2022-12-01T11:45:05.295Z,61.8
2022-12-01T11:49:59.844Z,61.9
2022-12-01T11:54:54.547Z,61.9
2022-12-01T11:59:49.525Z,61.8
2022-12-01T12:04:43.795Z,62.1
2022-12-01T12:09:43.510Z,62.4
2022-12-01T12:14:33.099Z,62.6
2022-12-01T12:19:33.581Z,62.5
2022-12-01T12:24:22.155Z,62.6
2022-12-01T12:29:16.803Z,62.6
2022-12-01T12:34:11.394Z,62.8
2022-12-01T12:39:06.145Z,63
2022-12-01T12:44:00.732Z,63.1
2022-12-01T12:53:50.425Z,63
2022-12-01T12:58:45.173Z,62.8
2022-12-01T13:03:40.393Z,62.5
2022-12-01T13:08:35.232Z,62.3
2022-12-01T13:13:30.197Z,62.2
2022-12-01T13:18:25.350Z,61.6
2022-12-01T13:23:20.395Z,60.7
2022-12-01T13:28:15.508Z,60.6
2022-12-01T13:33:10.715Z,59.8
2022-12-01T13:38:05.668Z,59.3
2022-12-01T13:43:03.160Z,59
2022-12-01T13:47:55.754Z,58.6
2022-12-01T13:52:50.635Z,58.5
2022-12-01T13:57:45.081Z,58.3
2022-12-01T14:02:40.137Z,58.3
2022-12-01T14:07:34.633Z,58.3
2022-12-01T14:12:28.609Z,58.3
2022-12-01T14:17:23.128Z,58.6
2022-12-01T14:22:17.151Z,58.5
2022-12-01T14:27:12.325Z,58.5
2022-12-01T14:32:06.845Z,58.8
2022-12-01T14:37:01.736Z,58.8
2022-12-01T14:41:56.625Z,60.5
2022-12-01T14:46:50.639Z,59
2022-12-01T14:51:45.296Z,59.2
2022-12-01T14:56:39.301Z,59.1
2022-12-01T15:01:33.953Z,59.3
2022-12-01T15:06:28.727Z,59.5
2022-12-01T15:11:23.414Z,59.5
2022-12-01T15:16:18.065Z,59.6
2022-12-01T15:21:12.789Z,59.7
2022-12-01T15:26:07.714Z,59.8
2022-12-01T15:31:02.608Z,59.9
2022-12-01T15:35:57.102Z,60.1
2022-12-01T15:41:20.902Z,60.3
2022-12-01T15:45:46.862Z,60.2
2022-12-01T15:50:46.081Z,60
2022-12-01T15:55:35.988Z,59.7
2022-12-01T16:00:30.243Z,59.5
2022-12-01T16:05:25.016Z,59.2
2022-12-01T16:10:20.079Z,59
2022-12-01T16:15:14.241Z,58.6
2022-12-01T16:20:09.474Z,57.8
2022-12-01T16:25:04.375Z,57.4
2022-12-01T16:29:59.395Z,57
2022-12-01T16:34:54.325Z,57.7
2022-12-01T16:39:49.177Z,57.2
2022-12-01T16:44:43.671Z,57.1
2022-12-01T16:49:37.970Z,57
2022-12-01T16:54:32.681Z,57.1
2022-12-01T16:59:27.461Z,57.2
2022-12-01T17:04:21.872Z,57.2
2022-12-01T17:09:16.485Z,57.2
2022-12-01T17:14:11.332Z,57.8
2022-12-01T17:19:05.944Z,57.7
2022-12-01T17:24:00.528Z,57.8
2022-12-01T17:28:55.111Z,57.8
2022-12-01T17:33:50.008Z,57.8
2022-12-01T17:38:44.533Z,57.9
2022-12-01T17:43:39.385Z,58
2022-12-01T17:48:34.147Z,58.7
2022-12-01T17:53:28.923Z,58.7
2022-12-01T17:58:23.910Z,58.7
2022-12-01T18:03:18.499Z,58.6
2022-12-01T18:08:12.935Z,58.7
2022-12-01T18:13:07.717Z,58.7
2022-12-01T18:18:02.780Z,58.5
2022-12-01T18:22:57.513Z,58.4
2022-12-01T18:27:52.383Z,58.2
2022-12-01T18:32:47.263Z,58.1
2022-12-01T18:37:42.177Z,58.2
2022-12-01T18:42:36.951Z,58.3
2022-12-01T18:47:32.121Z,58
2022-12-01T18:52:26.984Z,57.1
2022-12-01T18:57:21.803Z,57.3
2022-12-01T19:02:16.858Z,57.1
2022-12-01T19:07:11.072Z,57.4
2022-12-01T19:12:06.142Z,57.3
2022-12-01T19:17:01.213Z,57.2
2022-12-01T19:21:55.564Z,57.4
2022-12-01T19:26:50.710Z,57.3
2022-12-01T19:31:45.636Z,57.8
2022-12-01T19:36:39.494Z,58.4
2022-12-01T19:41:34.078Z,57.7
2022-12-01T19:46:29.000Z,57.2
2022-12-01T19:51:23.656Z,58
2022-12-01T19:56:18.728Z,58
2022-12-01T20:01:13.929Z,58.3
2022-12-01T20:06:08.655Z,58.7
2022-12-01T20:11:03.487Z,58.9
2022-12-01T20:15:58.318Z,58.9
2022-12-01T20:20:53.191Z,59.1
2022-12-01T20:25:47.923Z,59.3
2022-12-01T20:30:42.864Z,59.6
2022-12-01T20:35:37.574Z,59.8
2022-12-01T20:40:32.228Z,59.8
2022-12-01T20:45:27.330Z,60
2022-12-01T20:50:21.796Z,60.2
2022-12-01T20:55:15.863Z,60.4
2022-12-01T21:00:10.618Z,60.7
2022-12-01T21:05:05.285Z,60.5
2022-12-01T21:10:00.126Z,61.1
2022-12-01T21:14:54.568Z,61
2022-12-01T21:19:49.137Z,61.3
2022-12-01T21:24:44.182Z,61.4
2022-12-01T21:29:38.587Z,61.5
2022-12-01T21:34:33.263Z,61.7
2022-12-01T21:39:27.276Z,61.5
2022-12-01T21:44:21.923Z,61.8
2022-12-01T21:49:16.696Z,61.9
2022-12-01T21:54:11.609Z,62
2022-12-01T21:59:06.366Z,62.3
2022-12-01T22:08:56.327Z,62.4
2022-12-01T22:13:51.082Z,62.6
2022-12-01T22:18:45.805Z,62.8
2022-12-01T22:23:40.719Z,62.9
2022-12-01T22:28:35.640Z,63.3
2022-12-01T22:33:30.632Z,63.6
2022-12-01T22:38:25.509Z,63.6
2022-12-01T22:43:20.239Z,63.8
2022-12-01T22:48:14.722Z,63.9
2022-12-01T22:53:09.429Z,64.3
2022-12-01T22:58:04.119Z,64.4
2022-12-01T23:02:58.883Z,64.5
2022-12-01T23:07:53.519Z,64.6
2022-12-01T23:12:48.135Z,64.7
2022-12-01T23:17:42.857Z,64.7
2022-12-01T23:22:37.527Z,64.8
2022-12-01T23:27:32.090Z,65.2
2022-12-01T23:32:26.269Z,65
2022-12-01T23:37:21.162Z,66.1
2022-12-01T23:42:15.760Z,65.5
2022-12-01T23:47:10.445Z,66
2022-12-01T23:52:05.329Z,65.9
2022-12-01T23:57:00.266Z,66.2
